createdAt,value
2022-11-05T00:00:19.761Z,3.10
2022-11-05T00:03:05.834Z,3.70
2022-11-05T00:05:51.645Z,4.00
2022-11-05T00:08:37.530Z,3.17
2022-11-05T00:11:04.983Z,3.08
2022-11-05T00:13:50.928Z,3.92
2022-11-05T00:16:36.966Z,2.10
2022-11-05T00:19:07.491Z,3.08
2022-11-05T00:21:55.149Z,3.03
2022-11-05T00:24:41.698Z,2.67
2022-11-05T00:27:09.636Z,2.10
2022-11-05T00:29:37.583Z,1.70
2022-11-05T00:32:05.713Z,1.65
2022-11-05T00:34:33.319Z,1.38
2022-11-05T00:38:01.321Z,1.60
2022-11-05T00:40:34.887Z,1.52
2022-11-05T00:43:20.804Z,1.15
2022-11-05T00:45:48.338Z,1.33
2022-11-05T00:48:34.636Z,1.30
2022-11-05T00:51:02.185Z,1.48
2022-11-05T00:53:29.564Z,0.93
2022-11-05T00:55:56.897Z,0.75
2022-11-05T00:58:24.884Z,0.65
2022-11-05T01:00:54.590Z,0.50
2022-11-05T01:03:24.538Z,0.32
2022-11-05T01:05:55.528Z,0.55
2022-11-05T01:08:25.962Z,0.40
2022-11-05T01:10:56.208Z,0.50
2022-11-05T01:13:27.252Z,0.50
2022-11-05T01:15:55.815Z,0.60
2022-11-05T01:18:24.432Z,0.60
2022-11-05T01:20:51.803Z,0.60
2022-11-05T01:23:19.573Z,0.68
2022-11-05T01:25:47.119Z,0.57
2022-11-05T01:28:14.451Z,0.50
2022-11-05T01:30:41.811Z,0.50
2022-11-05T01:33:09.697Z,0.30
2022-11-05T01:35:39.136Z,0.30
2022-11-05T01:38:06.430Z,0.52
2022-11-05T01:40:33.819Z,0.57
2022-11-05T01:43:01.143Z,0.43
2022-11-05T01:45:28.992Z,0.30
2022-11-05T01:47:59.392Z,0.25
2022-11-05T01:51:01.560Z,0.32
2022-11-05T01:53:31.701Z,0.32
2022-11-05T01:56:22.647Z,0.20
2022-11-05T01:58:53.462Z,0.30
2022-11-05T02:01:21.008Z,0.28
2022-11-05T02:03:50.145Z,0.10
2022-11-05T02:06:17.879Z,0.17
2022-11-05T02:08:58.505Z,0.10
2022-11-05T02:11:26.050Z,0.15
2022-11-05T02:13:53.441Z,0.10
2022-11-05T02:16:20.754Z,0.30
2022-11-05T02:19:29.066Z,0.20
2022-11-05T02:22:14.450Z,0.13
2022-11-05T02:24:41.763Z,0.10
2022-11-05T02:27:43.015Z,0.10
2022-11-05T02:30:26.138Z,0.30
2022-11-05T02:33:00.017Z,0.15
2022-11-05T02:35:44.869Z,0.20
2022-11-05T02:38:32.437Z,0.10
2022-11-05T02:41:13.314Z,0.10
2022-11-05T02:44:03.820Z,0.10
2022-11-05T02:46:38.402Z,0.20
2022-11-05T02:49:36.564Z,0.28
2022-11-05T02:52:14.058Z,0.17
2022-11-05T02:54:47.749Z,0.30
2022-11-05T02:57:15.154Z,0.17
2022-11-05T02:59:42.412Z,0.20
2022-11-05T03:02:09.893Z,0.40
2022-11-05T03:04:37.423Z,0.30
2022-11-05T03:07:35.389Z,0.20
2022-11-05T03:10:23.537Z,0.38
2022-11-05T03:13:19.359Z,0.35
2022-11-05T03:16:06.131Z,0.30
2022-11-05T03:18:43.227Z,0.57
2022-11-05T03:21:22.078Z,0.25
2022-11-05T03:23:49.279Z,0.30
2022-11-05T03:26:26.543Z,0.47
2022-11-05T03:29:01.735Z,0.28
2022-11-05T03:31:31.367Z,0.28
2022-11-05T03:34:01.020Z,0.20
2022-11-05T03:36:35.382Z,0.10
2022-11-05T03:39:06.475Z,0.20
2022-11-05T03:41:35.483Z,0.10
2022-11-05T03:44:06.874Z,0.52
2022-11-05T03:46:41.139Z,0.10
2022-11-05T03:49:12.933Z,0.10
2022-11-05T03:51:49.587Z,0.98
2022-11-05T03:54:17.038Z,0.10
2022-11-05T03:57:02.636Z,0.20
2022-11-05T03:59:32.162Z,0.38
2022-11-05T04:01:59.627Z,0.00
2022-11-05T04:04:27.131Z,0.03
2022-11-05T04:07:13.230Z,0.08
2022-11-05T04:09:58.796Z,0.10
2022-11-05T04:12:44.769Z,0.20
2022-11-05T04:15:12.050Z,0.05
2022-11-05T04:17:39.309Z,0.10
2022-11-05T04:20:25.303Z,0.10
2022-11-05T04:23:25.328Z,0.10
2022-11-05T04:25:52.698Z,0.03
2022-11-05T04:28:19.922Z,0.20
2022-11-05T04:30:47.341Z,0.00
2022-11-05T04:33:16.782Z,0.25
2022-11-05T04:35:48.780Z,0.10
2022-11-05T04:38:20.228Z,0.20
2022-11-05T04:40:48.415Z,0.30
2022-11-05T04:43:19.046Z,0.13
2022-11-05T04:45:46.707Z,0.38
2022-11-05T04:48:14.083Z,0.30
2022-11-05T04:50:41.441Z,0.38
2022-11-05T04:53:09.006Z,0.10
2022-11-05T04:55:36.548Z,0.20
2022-11-05T04:58:03.883Z,0.20
2022-11-05T05:00:31.234Z,0.30
2022-11-05T05:02:58.538Z,0.20
2022-11-05T05:05:25.943Z,0.10
2022-11-05T05:07:53.410Z,0.20
2022-11-05T05:10:20.767Z,0.10
2022-11-05T05:12:48.519Z,0.52
2022-11-05T05:15:15.906Z,0.40
2022-11-05T05:17:43.333Z,0.43
2022-11-05T05:20:28.986Z,0.45
2022-11-05T05:22:56.315Z,0.40
2022-11-05T05:25:23.701Z,0.35
2022-11-05T05:27:51.271Z,0.60
2022-11-05T05:30:18.661Z,0.43
2022-11-05T05:32:46.018Z,5.13
2022-11-05T05:35:13.354Z,0.52
2022-11-05T05:37:40.805Z,0.50
2022-11-05T05:40:08.968Z,1.13
2022-11-05T05:42:41.773Z,0.40
2022-11-05T05:45:11.136Z,0.82
2022-11-05T05:47:38.866Z,1.08
2022-11-05T05:50:06.596Z,0.80
2022-11-05T05:52:34.150Z,0.50
2022-11-05T05:55:01.448Z,0.57
2022-11-05T05:57:28.772Z,0.50
2022-11-05T05:59:56.181Z,0.80
2022-11-05T06:02:23.813Z,1.00
2022-11-05T06:04:51.208Z,0.60
2022-11-05T06:07:18.541Z,0.82
2022-11-05T06:09:45.971Z,0.40
2022-11-05T06:12:13.347Z,1.08
2022-11-05T06:14:40.755Z,1.00
2022-11-05T06:17:08.277Z,0.80
2022-11-05T06:19:35.674Z,0.60
2022-11-05T06:22:02.932Z,0.70
2022-11-05T06:24:30.582Z,1.10
2022-11-05T06:26:58.265Z,0.40
2022-11-05T06:29:25.649Z,0.65
2022-11-05T06:31:53.058Z,0.70
2022-11-05T06:34:20.540Z,0.75
2022-11-05T06:36:47.924Z,1.00
2022-11-05T06:39:15.231Z,0.63
2022-11-05T06:42:11.809Z,0.65
2022-11-05T06:44:31.240Z,0.88
2022-11-05T06:46:58.725Z,0.60
2022-11-05T06:49:26.051Z,0.50
2022-11-05T06:51:53.512Z,0.77
2022-11-05T06:54:21.381Z,0.70
2022-11-05T06:56:48.837Z,0.65
2022-11-05T06:59:16.285Z,0.50
2022-11-05T07:01:43.773Z,0.45
2022-11-05T07:04:12.689Z,0.82
2022-11-05T07:06:40.040Z,0.50
2022-11-05T07:09:07.403Z,0.80
2022-11-05T07:11:34.715Z,0.65
2022-11-05T07:14:02.130Z,1.00
2022-11-05T07:16:29.792Z,0.90
2022-11-05T07:18:57.430Z,0.80
2022-11-05T07:21:24.939Z,0.85
2022-11-05T07:23:52.334Z,0.70
2022-11-05T07:26:19.657Z,0.93
2022-11-05T07:28:46.929Z,0.70
2022-11-05T07:31:14.334Z,0.98
2022-11-05T07:33:41.648Z,1.00
2022-11-05T07:36:09.486Z,1.30
2022-11-05T07:38:36.780Z,2.88
2022-11-05T07:41:04.164Z,1.33
2022-11-05T07:43:31.508Z,1.30
2022-11-05T07:45:59.249Z,1.60
2022-11-05T07:48:26.538Z,1.50
2022-11-05T07:50:53.820Z,1.25
2022-11-05T07:53:21.253Z,1.05
2022-11-05T07:55:48.655Z,2.15
2022-11-05T07:58:16.005Z,1.10
2022-11-05T08:00:43.573Z,0.43
2022-11-05T08:03:14.538Z,0.57
2022-11-05T08:05:47.152Z,0.90
2022-11-05T08:08:16.759Z,0.55
2022-11-05T08:10:44.072Z,1.23
2022-11-05T08:13:12.279Z,0.85
2022-11-05T08:15:40.814Z,1.33
2022-11-05T08:18:12.071Z,2.00
2022-11-05T08:20:41.417Z,1.40
2022-11-05T08:23:09.553Z,1.00
2022-11-05T08:25:37.182Z,1.83
2022-11-05T08:28:07.773Z,1.30
2022-11-05T08:30:35.811Z,1.25
2022-11-05T08:33:06.203Z,1.00
2022-11-05T08:35:35.226Z,1.33
2022-11-05T08:38:05.131Z,0.90
2022-11-05T08:40:34.677Z,0.70
2022-11-05T08:43:03.831Z,0.93
2022-11-05T08:45:31.524Z,1.00
2022-11-05T08:48:13.129Z,0.85
2022-11-05T08:50:40.979Z,0.60
2022-11-05T08:53:09.904Z,0.70
2022-11-05T08:55:38.552Z,0.50
2022-11-05T08:58:16.062Z,0.68
2022-11-05T09:00:46.843Z,0.70
2022-11-05T09:03:15.110Z,0.88
2022-11-05T09:05:43.273Z,0.60
2022-11-05T09:08:19.066Z,0.50
2022-11-05T09:10:47.491Z,0.80
2022-11-05T09:13:19.445Z,0.50
2022-11-05T09:15:49.119Z,0.38
2022-11-05T09:18:18.034Z,0.50
2022-11-05T09:20:45.768Z,0.85
2022-11-05T09:23:16.382Z,0.60
2022-11-05T09:25:44.624Z,0.60
2022-11-05T09:28:20.550Z,0.50
2022-11-05T09:30:50.028Z,1.00
2022-11-05T09:33:19.510Z,0.50
2022-11-05T09:35:46.958Z,0.80
2022-11-05T09:38:14.382Z,0.80
2022-11-05T09:41:09.221Z,1.25
2022-11-05T09:43:48.616Z,1.05
2022-11-05T09:46:26.295Z,1.00
2022-11-05T09:49:12.338Z,1.42
2022-11-05T09:51:40.729Z,1.30
2022-11-05T09:54:10.720Z,0.98
2022-11-05T09:56:41.272Z,0.73
2022-11-05T09:59:22.662Z,0.80
2022-11-05T10:01:52.357Z,0.73
2022-11-05T10:04:23.709Z,0.45
2022-11-05T10:07:02.897Z,0.50
2022-11-05T10:09:36.215Z,0.63
2022-11-05T10:14:48.621Z,1.92
2022-11-05T10:17:26.234Z,8.43
2022-11-05T10:20:03.294Z,5.03
2022-11-05T10:22:30.625Z,5.90
2022-11-05T10:24:57.939Z,25.33
2022-11-05T10:27:37.583Z,1.60
2022-11-05T10:30:05.495Z,1.17
2022-11-05T10:32:39.382Z,1.15
2022-11-05T10:35:11.503Z,10.57
2022-11-05T10:37:40.961Z,32.30
2022-11-05T10:40:33.839Z,2.92
2022-11-05T10:43:06.893Z,3.90
2022-11-05T10:48:28.355Z,0.77
2022-11-05T10:50:56.238Z,1.45
2022-11-05T10:53:34.927Z,0.45
2022-11-05T10:56:04.550Z,0.88
2022-11-05T10:58:35.275Z,0.75
2022-11-05T11:01:07.437Z,1.65
2022-11-05T11:03:52.731Z,0.77
2022-11-05T11:06:37.963Z,1.52
2022-11-05T11:09:26.381Z,0.68
2022-11-05T11:12:05.504Z,1.10
2022-11-05T11:14:35.012Z,0.40
2022-11-05T11:17:27.968Z,0.90
2022-11-05T11:20:22.321Z,0.68
2022-11-05T11:22:59.022Z,1.42
2022-11-05T11:25:29.955Z,2.70
2022-11-05T11:28:03.720Z,1.45
2022-11-05T11:30:31.756Z,1.00
2022-11-05T11:33:07.782Z,0.38
2022-11-05T11:35:37.941Z,0.40
2022-11-05T11:38:06.945Z,0.40
2022-11-05T11:40:38.686Z,0.35
2022-11-05T11:43:17.503Z,0.20
2022-11-05T11:45:54.215Z,0.40
2022-11-05T11:48:29.606Z,0.30
2022-11-05T11:50:58.698Z,0.50
2022-11-05T11:53:34.486Z,0.50
2022-11-05T11:56:14.743Z,0.47
2022-11-05T11:58:46.956Z,0.45
2022-11-05T12:01:32.563Z,0.80
2022-11-05T12:04:30.422Z,0.50
2022-11-05T12:07:54.571Z,0.70
2022-11-05T12:10:34.351Z,1.02
2022-11-05T12:13:14.195Z,0.50
2022-11-05T12:16:04.735Z,1.05
2022-11-05T12:18:45.434Z,0.70
2022-11-05T12:21:41.098Z,1.38
2022-11-05T12:24:34.539Z,0.80
2022-11-05T12:27:07.645Z,0.80
2022-11-05T12:30:04.036Z,0.60
2022-11-05T12:33:05.578Z,0.70
2022-11-05T12:35:44.115Z,0.40
2022-11-05T12:38:53.808Z,0.80
2022-11-05T12:41:33.860Z,0.50
2022-11-05T12:44:47.628Z,2.30
2022-11-05T12:47:36.410Z,0.95
2022-11-05T12:50:12.663Z,0.55
2022-11-05T12:52:57.447Z,0.60
2022-11-05T12:55:27.299Z,0.73
2022-11-05T12:58:01.143Z,0.40
2022-11-05T13:00:30.451Z,0.30
2022-11-05T13:03:00.768Z,0.45
2022-11-05T13:05:36.552Z,0.20
2022-11-05T13:08:07.532Z,0.30
2022-11-05T13:10:51.787Z,0.30
2022-11-05T13:13:31.241Z,0.47
2022-11-05T13:16:21.578Z,0.73
2022-11-05T13:19:18.016Z,0.60
2022-11-05T13:21:53.682Z,0.50
2022-11-05T13:24:25.469Z,0.88
2022-11-05T13:27:24.801Z,0.50
2022-11-05T13:29:56.985Z,0.98
2022-11-05T13:32:43.738Z,0.60
2022-11-05T13:35:37.766Z,0.45
2022-11-05T13:38:27.597Z,0.22
2022-11-05T13:40:57.590Z,0.40
2022-11-05T13:43:27.705Z,0.77
2022-11-05T13:46:05.829Z,0.60
2022-11-05T13:48:43.607Z,0.68
2022-11-05T13:51:34.767Z,0.60
2022-11-05T13:54:17.031Z,0.50
2022-11-05T13:56:53.518Z,0.30
2022-11-05T13:59:48.348Z,0.80
2022-11-05T14:02:21.556Z,1.75
2022-11-05T14:07:17.640Z,0.63
2022-11-05T14:09:45.812Z,0.85
2022-11-05T14:12:46.606Z,1.38
2022-11-05T14:15:24.571Z,1.08
2022-11-05T14:18:04.318Z,1.00
2022-11-05T14:20:31.846Z,1.88
2022-11-05T14:23:17.675Z,1.30
2022-11-05T14:25:45.153Z,1.65
2022-11-05T14:28:38.943Z,1.77
2022-11-05T14:34:15.148Z,2.67
2022-11-05T14:36:44.846Z,2.20
2022-11-05T14:39:31.020Z,2.03
2022-11-05T14:42:03.620Z,2.22
2022-11-05T14:44:34.189Z,2.28
2022-11-05T14:47:07.788Z,2.10
2022-11-05T14:49:53.133Z,2.05
2022-11-05T14:52:21.053Z,2.67
2022-11-05T14:54:58.290Z,1.98
2022-11-05T14:57:41.792Z,1.70
2022-11-05T15:03:56.231Z,2.10
2022-11-05T15:06:25.367Z,2.20
2022-11-05T15:09:16.996Z,2.20
2022-11-05T15:12:02.397Z,2.90
2022-11-05T15:15:01.993Z,2.58
2022-11-05T15:17:33.220Z,3.17
2022-11-05T15:20:06.744Z,2.95
2022-11-05T15:22:40.353Z,3.60
2022-11-05T15:25:16.261Z,3.50
2022-11-05T15:28:06.680Z,3.67
2022-11-05T15:30:34.169Z,2.85
2022-11-05T15:33:17.455Z,2.92
2022-11-05T15:35:44.862Z,3.17
2022-11-05T15:38:29.387Z,4.20
2022-11-05T15:40:59.066Z,3.78
2022-11-05T15:43:26.423Z,3.60
2022-11-05T15:46:14.493Z,3.55
2022-11-05T15:48:46.248Z,3.50
2022-11-05T15:51:13.662Z,3.35
2022-11-05T15:54:02.187Z,3.45
2022-11-05T15:56:33.315Z,3.25
2022-11-05T15:59:17.072Z,4.22
2022-11-05T16:02:18.622Z,4.18
2022-11-05T16:04:49.152Z,3.83
2022-11-05T16:07:17.286Z,3.78
2022-11-05T16:09:56.839Z,3.90
2022-11-05T16:12:35.603Z,3.55
2022-11-05T16:15:08.877Z,3.50
2022-11-05T16:20:22.866Z,3.70
2022-11-05T16:22:53.386Z,3.60
2022-11-05T16:25:41.485Z,4.03
2022-11-05T16:28:29.040Z,3.95
2022-11-05T16:30:58.668Z,4.32
2022-11-05T16:33:32.636Z,4.30
2022-11-05T16:36:00.049Z,4.63
2022-11-05T16:38:27.973Z,5.45
2022-11-05T16:40:55.242Z,5.25
2022-11-05T16:43:26.321Z,5.93
2022-11-05T16:45:55.636Z,6.45
2022-11-05T16:48:23.219Z,6.53
2022-11-05T16:50:50.639Z,7.32
2022-11-05T16:53:18.127Z,5.15
2022-11-05T16:55:46.535Z,5.30
2022-11-05T16:58:21.880Z,4.75
2022-11-05T17:00:50.955Z,4.65
2022-11-05T17:03:18.647Z,4.45
2022-11-05T17:05:46.451Z,5.13
2022-11-05T17:08:14.198Z,5.78
2022-11-05T17:10:42.010Z,4.80
2022-11-05T17:13:17.947Z,5.38
2022-11-05T17:15:48.259Z,5.55
2022-11-05T17:18:18.750Z,4.65
2022-11-05T17:20:51.790Z,4.65
2022-11-05T17:23:21.650Z,4.18
2022-11-05T17:25:54.684Z,4.22
2022-11-05T17:28:22.649Z,4.00
2022-11-05T17:30:52.946Z,4.50
2022-11-05T17:33:22.889Z,3.85
2022-11-05T17:35:51.497Z,3.80
2022-11-05T17:38:19.771Z,4.57
2022-11-05T17:40:47.759Z,3.75
2022-11-05T17:43:16.129Z,3.50
2022-11-05T17:45:47.281Z,3.47
2022-11-05T17:48:15.526Z,4.28
2022-11-05T17:50:48.067Z,5.00
2022-11-05T17:53:17.164Z,4.60
2022-11-05T17:55:45.728Z,5.30
2022-11-05T17:58:13.510Z,4.97
2022-11-05T18:00:42.491Z,5.30
2022-11-05T18:03:11.619Z,4.95
2022-11-05T18:05:40.316Z,3.97
2022-11-05T18:08:08.743Z,4.20
2022-11-05T18:10:40.647Z,4.22
2022-11-05T18:13:08.226Z,4.50
2022-11-05T18:15:38.016Z,4.70
2022-11-05T18:18:05.450Z,4.70
2022-11-05T18:20:33.095Z,5.03
2022-11-05T18:23:00.445Z,5.22
2022-11-05T18:25:27.784Z,6.55
2022-11-05T18:27:55.153Z,5.78
2022-11-05T18:30:22.481Z,5.20
2022-11-05T18:32:51.084Z,11.80
2022-11-05T18:35:18.472Z,7.47
2022-11-05T18:37:46.145Z,5.63
2022-11-05T18:40:16.815Z,5.90
2022-11-05T18:42:50.989Z,5.28
2022-11-05T18:45:18.496Z,5.20
2022-11-05T18:47:48.488Z,5.53
2022-11-05T18:50:15.887Z,5.57
2022-11-05T18:52:43.982Z,5.90
2022-11-05T18:55:11.343Z,5.80
2022-11-05T18:57:41.651Z,6.00
2022-11-05T19:00:09.769Z,6.80
2022-11-05T19:02:37.293Z,7.30
2022-11-05T19:05:28.022Z,8.57
2022-11-05T19:07:52.449Z,8.65
2022-11-05T19:10:19.790Z,8.20
2022-11-05T19:12:47.212Z,8.27
2022-11-05T19:15:14.533Z,7.03
2022-11-05T19:17:41.890Z,5.82
2022-11-05T19:20:09.661Z,5.57
2022-11-05T19:22:37.174Z,5.38
2022-11-05T19:25:05.573Z,6.03
2022-11-05T19:27:34.589Z,6.43
2022-11-05T19:30:02.463Z,11.48
2022-11-05T19:32:29.807Z,6.10
2022-11-05T19:34:57.087Z,5.25
2022-11-05T19:37:24.388Z,6.38
2022-11-05T19:39:52.062Z,6.38
2022-11-05T19:42:19.321Z,7.03
2022-11-05T19:44:46.624Z,6.93
2022-11-05T19:47:13.972Z,6.18
2022-11-05T19:49:41.352Z,7.32
2022-11-05T19:52:08.682Z,6.75
2022-11-05T19:54:36.109Z,6.05
2022-11-05T19:57:03.573Z,13.43
2022-11-05T19:59:30.949Z,8.70
2022-11-05T20:01:58.508Z,6.88
2022-11-05T20:04:26.001Z,6.47
2022-11-05T20:06:53.430Z,6.18
2022-11-05T20:09:22.437Z,7.00
2022-11-05T20:11:53.983Z,9.05
2022-11-05T20:14:21.334Z,7.80
2022-11-05T20:16:49.616Z,8.82
2022-11-05T20:19:19.200Z,8.40
2022-11-05T20:21:47.021Z,6.32
2022-11-05T20:24:22.387Z,6.60
2022-11-05T20:26:55.457Z,6.78
2022-11-05T20:29:24.041Z,6.53
2022-11-05T20:31:52.569Z,15.57
2022-11-05T20:34:20.106Z,6.72
2022-11-05T20:36:47.427Z,6.00
2022-11-05T20:39:15.087Z,5.88
2022-11-05T20:41:42.516Z,6.05
2022-11-05T20:44:10.155Z,6.82
2022-11-05T20:46:37.528Z,5.47
2022-11-05T20:49:04.887Z,6.57
2022-11-05T20:51:32.175Z,5.63
2022-11-05T20:54:01.128Z,5.38
2022-11-05T20:56:34.717Z,4.65
2022-11-05T20:59:02.865Z,4.75
2022-11-05T21:01:32.463Z,3.88
2022-11-05T21:04:00.068Z,4.45
2022-11-05T21:06:27.797Z,4.32
2022-11-05T21:08:58.933Z,5.20
2022-11-05T21:11:26.663Z,4.93
2022-11-05T21:13:54.773Z,5.15
2022-11-05T21:16:22.331Z,14.43
2022-11-05T21:18:49.715Z,5.15
2022-11-05T21:21:19.314Z,5.78
2022-11-05T21:23:47.188Z,5.47
2022-11-05T21:26:16.833Z,4.65
2022-11-05T21:28:44.234Z,5.60
2022-11-05T21:31:11.695Z,4.75
2022-11-05T21:33:39.223Z,7.95
2022-11-05T21:36:12.623Z,11.75
2022-11-05T21:41:08.768Z,4.28
2022-11-05T21:43:37.811Z,3.25
2022-11-05T21:46:05.518Z,3.63
2022-11-05T21:48:33.981Z,3.90
2022-11-05T21:51:19.884Z,3.00
2022-11-05T21:54:05.735Z,3.35
2022-11-05T21:56:52.426Z,3.05
2022-11-05T21:59:40.977Z,7.13
2022-11-05T22:02:11.323Z,6.30
2022-11-05T22:04:41.572Z,5.28
2022-11-05T22:07:11.532Z,4.68
2022-11-05T22:09:42.451Z,3.35
2022-11-05T22:12:10.547Z,4.07
2022-11-05T22:14:38.003Z,3.40
2022-11-05T22:17:05.767Z,4.00
2022-11-05T22:19:33.754Z,3.65
2022-11-05T22:22:01.319Z,5.45
2022-11-05T22:24:30.532Z,4.25
2022-11-05T22:26:59.802Z,4.15
2022-11-05T22:29:28.064Z,3.20
2022-11-05T22:31:55.755Z,3.38
2022-11-05T22:34:24.121Z,3.63
2022-11-05T22:36:52.223Z,3.47
2022-11-05T22:39:20.088Z,3.63
2022-11-05T22:41:47.574Z,2.70
2022-11-05T22:44:16.672Z,3.38
2022-11-05T22:46:44.211Z,2.08
2022-11-05T22:49:12.096Z,2.22
2022-11-05T22:51:40.029Z,2.60
2022-11-05T22:54:08.448Z,1.88
2022-11-05T22:56:40.396Z,2.42
2022-11-05T22:59:10.134Z,1.67
2022-11-05T23:01:37.736Z,1.75
2022-11-05T23:04:05.196Z,2.28
2022-11-05T23:06:51.864Z,1.50
2022-11-05T23:09:42.327Z,1.65
2022-11-05T23:12:24.074Z,1.85
2022-11-05T23:14:52.401Z,1.35
2022-11-05T23:17:38.535Z,1.50
2022-11-05T23:20:26.903Z,1.20
2022-11-05T23:23:12.735Z,1.38
2022-11-05T23:25:40.175Z,1.20
2022-11-05T23:28:10.244Z,1.45
2022-11-05T23:31:02.030Z,1.48
2022-11-05T23:33:33.610Z,1.48
2022-11-05T23:36:19.707Z,3.10
2022-11-05T23:38:47.104Z,4.72
2022-11-05T23:41:32.834Z,2.15
2022-11-05T23:44:18.952Z,2.55
2022-11-05T23:47:04.926Z,6.63
2022-11-05T23:49:32.430Z,4.00
2022-11-05T23:51:59.766Z,4.85
2022-11-05T23:54:27.326Z,2.83
2022-11-05T23:56:54.837Z,2.92
2022-11-05T23:59:22.178Z,2.10
